createdAt,value
2023-05-15T00:00:58.353Z,99980.33
2023-05-15T00:03:40.694Z,99983.80
2023-05-15T00:06:38.854Z,99990.23
2023-05-15T00:09:30.481Z,99992.30
2023-05-15T00:12:24.107Z,99992.40
2023-05-15T00:14:59.828Z,99995.94
2023-05-15T00:17:30.451Z,99996.85
2023-05-15T00:20:00.767Z,99992.70
2023-05-15T00:22:33.294Z,99997.45
2023-05-15T00:25:15.944Z,100003.16
2023-05-15T00:27:54.735Z,100003.00
2023-05-15T00:30:33.797Z,99985.78
2023-05-15T00:33:20.841Z,99978.91
2023-05-15T00:36:20.408Z,99986.10
2023-05-15T00:39:01.264Z,99998.14
2023-05-15T00:41:52.613Z,99996.25
2023-05-15T00:44:50.968Z,99989.96
2023-05-15T00:47:37.376Z,99982.30
2023-05-15T00:50:20.627Z,99983.98
2023-05-15T00:53:03.465Z,99984.02
2023-05-15T00:55:48.034Z,99981.94
2023-05-15T00:58:32.956Z,99980.73
2023-05-15T01:01:26.231Z,99982.90
2023-05-15T01:04:12.934Z,99988.44
2023-05-15T01:06:51.794Z,100000.38
2023-05-15T01:09:39.365Z,99993.77
2023-05-15T01:12:17.842Z,99978.09
2023-05-15T01:14:57.319Z,99958.11
2023-05-15T01:17:34.206Z,99949.83
2023-05-15T01:20:23.245Z,99949.62
2023-05-15T01:23:23.230Z,99942.41
2023-05-15T01:26:53.940Z,99929.16
2023-05-15T01:29:48.425Z,99920.77
2023-05-15T01:32:38.095Z,99914.44
2023-05-15T01:35:27.716Z,99913.41
2023-05-15T01:38:23.431Z,99919.02
2023-05-15T01:41:09.590Z,99920.02
2023-05-15T01:44:07.984Z,99913.49
2023-05-15T01:47:08.892Z,99900.64
2023-05-15T01:49:48.486Z,99901.21
2023-05-15T01:52:35.430Z,99894.99
2023-05-15T01:55:07.562Z,99879.96
2023-05-15T01:57:38.696Z,99878.41
2023-05-15T02:00:13.638Z,99873.32
2023-05-15T02:02:51.798Z,99860.38
2023-05-15T02:05:39.948Z,99842.77
2023-05-15T02:08:17.880Z,99837.66
2023-05-15T02:11:13.358Z,99837.09
2023-05-15T02:13:56.654Z,99833.73
2023-05-15T02:16:41.730Z,99831.86
2023-05-15T02:19:38.034Z,99825.25
2023-05-15T02:22:15.348Z,99823.29
2023-05-15T02:24:50.314Z,99821.20
2023-05-15T02:27:53.295Z,99813.69
2023-05-15T02:30:59.969Z,99808.12
2023-05-15T02:33:59.783Z,99806.54
2023-05-15T02:36:48.302Z,99799.52
2023-05-15T02:39:36.347Z,99795.28
2023-05-15T02:42:19.798Z,99783.63
2023-05-15T02:45:07.273Z,99777.83
2023-05-15T02:47:51.213Z,99777.33
2023-05-15T02:50:35.422Z,99772.06
2023-05-15T02:53:27.673Z,99761.07
2023-05-15T02:56:09.911Z,99745.73
2023-05-15T02:59:11.825Z,99749.50
2023-05-15T03:01:47.519Z,99742.13
2023-05-15T03:04:39.044Z,99737.13
2023-05-15T03:07:39.089Z,99732.13
2023-05-15T03:10:35.117Z,99726.77
2023-05-15T03:13:22.061Z,99731.63
2023-05-15T03:16:05.224Z,99731.43
2023-05-15T03:18:45.659Z,99723.14
2023-05-15T03:21:25.703Z,99721.73
2023-05-15T03:24:04.473Z,99724.52
2023-05-15T03:26:54.935Z,99719.69
2023-05-15T03:29:36.912Z,99713.90
2023-05-15T03:32:13.779Z,99714.41
2023-05-15T03:34:49.553Z,99712.65
2023-05-15T03:37:31.047Z,99708.27
2023-05-15T03:40:23.828Z,99700.77
2023-05-15T03:43:08.171Z,99703.83
2023-05-15T03:45:44.313Z,99705.96
2023-05-15T03:48:31.898Z,99707.23
2023-05-15T03:51:12.839Z,99708.73
2023-05-15T03:54:07.801Z,99699.70
2023-05-15T03:56:48.087Z,99695.49
2023-05-15T03:59:24.378Z,99698.71
2023-05-15T04:02:05.823Z,99696.70
2023-05-15T04:04:45.222Z,99691.31
2023-05-15T04:07:18.383Z,99688.05
2023-05-15T04:09:51.603Z,99689.04
2023-05-15T04:12:24.235Z,99686.48
2023-05-15T04:15:07.249Z,99691.02
2023-05-15T04:17:54.002Z,99691.25
2023-05-15T04:20:29.281Z,99694.64
2023-05-15T04:23:06.454Z,99693.17
2023-05-15T04:25:54.868Z,99689.52
2023-05-15T04:29:00.288Z,99689.20
2023-05-15T04:32:37.369Z,99687.78
2023-05-15T04:35:11.200Z,99688.70
2023-05-15T04:37:47.831Z,99684.13
2023-05-15T04:40:25.992Z,99682.28
2023-05-15T04:43:12.680Z,99679.92
2023-05-15T04:45:58.995Z,99674.38
2023-05-15T04:48:47.075Z,99674.23
2023-05-15T04:56:37.648Z,99669.83
2023-05-15T04:59:07.406Z,99668.64
2023-05-15T05:01:37.730Z,99668.36
2023-05-15T05:04:08.929Z,99670.91
2023-05-15T05:06:54.372Z,99656.00
2023-05-15T05:09:34.139Z,99656.39
2023-05-15T05:12:09.953Z,99654.60
2023-05-15T05:14:43.413Z,99651.98
2023-05-15T05:17:13.214Z,99646.90
2023-05-15T05:19:43.071Z,99643.21
2023-05-15T05:22:13.023Z,99639.35
2023-05-15T05:24:45.817Z,99637.17
2023-05-15T05:27:23.109Z,99634.77
2023-05-15T05:30:04.063Z,99633.19
2023-05-15T05:32:40.519Z,99626.94
2023-05-15T05:35:15.502Z,99626.48
2023-05-15T05:38:03.534Z,99625.06
2023-05-15T05:40:45.793Z,99622.14
2023-05-15T05:43:20.948Z,99623.02
2023-05-15T05:46:07.733Z,99619.13
2023-05-15T05:48:56.346Z,99616.59
2023-05-15T05:51:38.548Z,99613.32
2023-05-15T05:54:44.960Z,99608.98
2023-05-15T05:57:19.233Z,99603.97
2023-05-15T05:59:52.285Z,99597.67
2023-05-15T06:02:35.302Z,99591.59
2023-05-15T06:05:15.983Z,99583.00
2023-05-15T06:08:18.140Z,99588.25
2023-05-15T06:11:24.417Z,99583.39
2023-05-15T06:14:25.644Z,99580.70
2023-05-15T06:17:06.510Z,99578.38
2023-05-15T06:19:55.465Z,99572.44
2023-05-15T06:22:32.714Z,99568.77
2023-05-15T06:25:22.763Z,99567.43
2023-05-15T06:28:08.309Z,99565.29
2023-05-15T06:30:51.751Z,99562.54
2023-05-15T06:33:26.837Z,99559.39
2023-05-15T06:36:16.748Z,99560.80
2023-05-15T06:39:04.315Z,99556.75
2023-05-15T06:42:00.480Z,99555.80
2023-05-15T06:44:38.813Z,99548.76
2023-05-15T06:47:27.295Z,99543.86
2023-05-15T06:50:17.340Z,99541.64
2023-05-15T06:53:13.081Z,99539.86
2023-05-15T06:55:53.281Z,99541.03
2023-05-15T06:58:33.128Z,99533.73
2023-05-15T07:01:29.248Z,99534.24
2023-05-15T07:04:17.178Z,99531.59
2023-05-15T07:06:54.681Z,99530.17
2023-05-15T07:12:24.951Z,99523.26
2023-05-15T07:14:54.893Z,99517.62
2023-05-15T07:17:30.812Z,99517.52
2023-05-15T07:20:12.376Z,99516.95
2023-05-15T07:22:56.462Z,99513.66
2023-05-15T07:25:30.464Z,99513.66
2023-05-15T07:28:00.802Z,99509.33
2023-05-15T07:30:32.331Z,99510.42
2023-05-15T07:33:02.362Z,99506.61
2023-05-15T07:35:32.218Z,99504.38
2023-05-15T07:38:04.775Z,99507.96
2023-05-15T07:40:35.001Z,99503.51
2023-05-15T07:43:07.743Z,99508.29
2023-05-15T07:45:37.579Z,99504.64
2023-05-15T07:48:23.468Z,99502.08
2023-05-15T07:50:54.037Z,99504.08
2023-05-15T07:53:23.524Z,99496.27
2023-05-15T07:55:53.709Z,99495.73
2023-05-15T07:58:23.661Z,99496.11
2023-05-15T08:00:56.116Z,99497.03
2023-05-15T08:03:26.615Z,99489.11
2023-05-15T08:06:00.048Z,99486.25
2023-05-15T08:08:30.273Z,99482.45
2023-05-15T08:11:03.481Z,99482.77
2023-05-15T08:13:33.703Z,99479.73
2023-05-15T08:16:07.837Z,99476.27
2023-05-15T08:18:37.929Z,99472.06
2023-05-15T08:21:08.485Z,99470.15
2023-05-15T08:23:38.588Z,99468.25
2023-05-15T08:26:11.503Z,99461.36
2023-05-15T08:28:43.802Z,99461.11
2023-05-15T08:31:14.230Z,99461.48
2023-05-15T08:33:45.769Z,99455.96
2023-05-15T08:36:20.278Z,99450.19
2023-05-15T08:38:50.793Z,99451.21
2023-05-15T08:41:40.464Z,99447.30
2023-05-15T08:44:13.726Z,99447.20
2023-05-15T08:46:44.318Z,99450.20
2023-05-15T08:49:57.367Z,99448.23
2023-05-15T08:52:31.530Z,99444.25
2023-05-15T08:55:06.146Z,99447.11
2023-05-15T08:57:37.276Z,99449.06
2023-05-15T09:00:15.099Z,99449.10
2023-05-15T09:02:45.980Z,99447.73
2023-05-15T09:05:17.208Z,99448.54
2023-05-15T09:07:48.590Z,99449.08
2023-05-15T09:10:20.514Z,99446.91
2023-05-15T09:12:53.932Z,99445.21
2023-05-15T09:15:26.650Z,99437.70
2023-05-15T09:18:00.464Z,99439.53
2023-05-15T09:20:35.698Z,99436.67
2023-05-15T09:23:26.020Z,99436.98
2023-05-15T09:25:59.150Z,99432.19
2023-05-15T09:28:35.467Z,99430.69
2023-05-15T09:31:20.883Z,99432.70
2023-05-15T09:34:02.449Z,99434.21
2023-05-15T09:36:33.470Z,99428.17
2023-05-15T09:39:10.110Z,99425.81
2023-05-15T09:41:49.459Z,99428.66
2023-05-15T09:44:28.021Z,99428.91
2023-05-15T09:46:59.369Z,99428.98
2023-05-15T09:49:44.061Z,99422.20
2023-05-15T09:52:16.839Z,99419.09
2023-05-15T09:54:57.864Z,99414.73
2023-05-15T09:57:31.531Z,99421.70
2023-05-15T10:00:13.565Z,99423.77
2023-05-15T10:02:44.219Z,99422.55
2023-05-15T10:05:17.847Z,99423.27
2023-05-15T10:07:59.734Z,99418.22
2023-05-15T10:10:33.802Z,99419.29
2023-05-15T10:13:06.581Z,99418.81
2023-05-15T10:15:37.823Z,99416.34
2023-05-15T10:18:09.384Z,99422.98
2023-05-15T10:20:39.305Z,99420.77
2023-05-15T10:23:16.801Z,99420.05
2023-05-15T10:26:41.357Z,99416.19
2023-05-15T10:29:18.030Z,99414.44
2023-05-15T10:31:52.443Z,99417.60
2023-05-15T10:34:27.722Z,99414.76
2023-05-15T10:37:02.938Z,99413.85
2023-05-15T10:39:42.210Z,99407.58
2023-05-15T10:42:14.219Z,99411.58
2023-05-15T10:44:45.205Z,99412.64
2023-05-15T10:47:19.095Z,99407.64
2023-05-15T10:49:56.739Z,99406.99
2023-05-15T10:52:31.178Z,99410.06
2023-05-15T10:55:01.976Z,99405.02
2023-05-15T10:57:33.503Z,99395.47
2023-05-15T11:00:37.304Z,99399.81
2023-05-15T11:03:08.556Z,99397.39
2023-05-15T11:06:16.705Z,99391.81
2023-05-15T11:08:47.815Z,99395.13
2023-05-15T11:11:52.230Z,99391.77
2023-05-15T11:14:30.111Z,99392.74
2023-05-15T11:17:07.190Z,99391.49
2023-05-15T11:19:59.229Z,99388.63
2023-05-15T11:22:41.081Z,99387.17
2023-05-15T11:25:21.094Z,99386.38
2023-05-15T11:27:59.202Z,99385.46
2023-05-15T11:30:45.609Z,99382.10
2023-05-15T11:33:27.546Z,99383.61
2023-05-15T11:36:05.805Z,99376.75
2023-05-15T11:38:40.852Z,99377.77
2023-05-15T11:41:20.659Z,99383.25
2023-05-15T11:43:52.922Z,99380.08
2023-05-15T11:46:26.918Z,99375.98
2023-05-15T11:49:01.579Z,99374.44
2023-05-15T11:51:33.033Z,99375.92
2023-05-15T11:54:08.052Z,99378.85
2023-05-15T11:56:47.872Z,99381.09
2023-05-15T11:59:19.422Z,99380.05
2023-05-15T12:02:00.122Z,99375.77
2023-05-15T12:04:38.952Z,99376.55
2023-05-15T12:07:13.426Z,99373.58
2023-05-15T12:09:45.732Z,99368.62
2023-05-15T12:12:29.056Z,99370.46
2023-05-15T12:15:01.229Z,99365.52
2023-05-15T12:17:33.551Z,99358.42
2023-05-15T12:20:05.102Z,99359.22
2023-05-15T12:22:41.184Z,99357.55
2023-05-15T12:25:16.678Z,99355.39
2023-05-15T12:27:49.551Z,99357.77
2023-05-15T12:30:20.989Z,99362.23
2023-05-15T12:32:52.273Z,99365.65
2023-05-15T12:35:25.651Z,99369.54
2023-05-15T12:38:01.797Z,99369.41
2023-05-15T12:40:35.506Z,99360.20
2023-05-15T12:43:09.736Z,99359.33
2023-05-15T12:45:43.023Z,99359.02
2023-05-15T12:48:16.974Z,99354.15
2023-05-15T12:50:58.207Z,99354.35
2023-05-15T12:53:34.500Z,99345.29
2023-05-15T12:56:05.043Z,99335.77
2023-05-15T12:58:37.659Z,99331.73
2023-05-15T13:01:07.983Z,99339.89
2023-05-15T13:03:44.645Z,99344.09
2023-05-15T13:06:17.054Z,99345.23
2023-05-15T13:08:48.358Z,99342.08
2023-05-15T13:11:18.585Z,99333.44
2023-05-15T13:13:53.548Z,99328.02
2023-05-15T13:16:33.255Z,99324.17
2023-05-15T13:19:18.060Z,99323.40
2023-05-15T13:21:54.693Z,99316.96
2023-05-15T13:24:33.073Z,99317.09
2023-05-15T13:27:03.932Z,99316.98
2023-05-15T13:29:36.743Z,99312.91
2023-05-15T13:32:08.030Z,99311.65
2023-05-15T13:34:38.196Z,99312.71
2023-05-15T13:37:14.163Z,99311.56
2023-05-15T13:39:44.639Z,99313.82
2023-05-15T13:42:14.917Z,99312.11
2023-05-15T13:44:45.306Z,99313.33
2023-05-15T13:47:15.631Z,99311.91
2023-05-15T13:49:46.723Z,99319.63
2023-05-15T13:52:17.178Z,99324.79
2023-05-15T13:54:48.283Z,99331.20
2023-05-15T13:57:21.444Z,99332.11
2023-05-15T13:59:52.558Z,99334.98
2023-05-15T14:02:33.769Z,99335.00
2023-05-15T14:05:18.571Z,99331.16
2023-05-15T14:07:51.549Z,99326.67
2023-05-15T14:10:24.458Z,99327.83
2023-05-15T14:12:56.071Z,99322.41
2023-05-15T14:15:30.513Z,99327.27
2023-05-15T14:18:06.125Z,99330.69
2023-05-15T14:20:48.101Z,99335.09
2023-05-15T14:23:26.916Z,99335.98
2023-05-15T14:25:57.404Z,99336.29
2023-05-15T14:28:27.917Z,99337.44
2023-05-15T14:30:58.625Z,99343.70
2023-05-15T14:33:29.549Z,99346.63
2023-05-15T14:36:05.433Z,99343.95
2023-05-15T14:38:43.011Z,99344.98
2023-05-15T14:41:33.691Z,99339.85
2023-05-15T14:44:11.581Z,99335.37
2023-05-15T14:46:43.720Z,99329.91
2023-05-15T14:49:14.428Z,99330.18
2023-05-15T14:51:47.794Z,99330.40
2023-05-15T14:54:17.432Z,99337.02
2023-05-15T14:56:51.603Z,99343.89
2023-05-15T14:59:22.377Z,99340.84
2023-05-15T15:01:52.726Z,99334.81
2023-05-15T15:04:23.037Z,99332.56
2023-05-15T15:06:59.480Z,99333.48
2023-05-15T15:09:29.342Z,99336.69
2023-05-15T15:11:59.213Z,99328.72
2023-05-15T15:14:29.048Z,99324.58
2023-05-15T15:17:17.694Z,99324.10
2023-05-15T15:19:47.368Z,99328.04
2023-05-15T15:22:17.021Z,99326.22
2023-05-15T15:24:49.481Z,99330.02
2023-05-15T15:27:18.975Z,99333.17
2023-05-15T15:29:48.354Z,99331.17
2023-05-15T15:32:20.843Z,99328.19
2023-05-15T15:34:50.933Z,99322.17
2023-05-15T15:37:20.501Z,99320.63
2023-05-15T15:39:50.077Z,99312.52
2023-05-15T15:42:19.733Z,99302.92
2023-05-15T15:44:49.869Z,99298.67
2023-05-15T15:47:20.426Z,99290.52
2023-05-15T15:49:53.732Z,99288.39
2023-05-15T15:52:23.871Z,99283.36
2023-05-15T15:54:53.436Z,99276.98
2023-05-15T15:57:22.795Z,99269.69
2023-05-15T15:59:52.247Z,99271.81
2023-05-15T16:02:24.635Z,99277.40
2023-05-15T16:04:54.108Z,99284.21
2023-05-15T16:07:23.753Z,99290.95
2023-05-15T16:10:00.280Z,99293.16
2023-05-15T16:12:43.024Z,99292.75
2023-05-15T16:15:23.255Z,99293.00
2023-05-15T16:17:54.926Z,99294.83
2023-05-15T16:20:25.172Z,99289.52
2023-05-15T16:22:54.842Z,99292.23
2023-05-15T16:25:23.967Z,99299.19
2023-05-15T16:27:56.661Z,99312.26
2023-05-15T16:30:33.651Z,99317.56
2023-05-15T16:33:14.469Z,99322.89
2023-05-15T16:35:45.186Z,99321.80
2023-05-15T16:38:15.966Z,99323.55
2023-05-15T16:40:47.098Z,99325.33
2023-05-15T16:43:17.178Z,99329.35
2023-05-15T16:45:46.509Z,99335.23
2023-05-15T16:48:15.874Z,99333.27
2023-05-15T16:50:45.316Z,99332.83
2023-05-15T16:53:15.610Z,99336.78
2023-05-15T16:55:47.213Z,99342.92
2023-05-15T16:58:17.388Z,99347.55
2023-05-15T17:00:47.615Z,99351.09
2023-05-15T17:03:19.080Z,99354.92
2023-05-15T17:05:49.031Z,99359.16
2023-05-15T17:08:19.438Z,99365.08
2023-05-15T17:10:49.627Z,99365.80
2023-05-15T17:13:19.060Z,99367.06
2023-05-15T17:15:50.527Z,99369.94
2023-05-15T17:18:20.312Z,99373.80
2023-05-15T17:20:49.685Z,99375.39
2023-05-15T17:23:21.721Z,99378.85
2023-05-15T17:25:52.729Z,99383.84
2023-05-15T17:28:22.636Z,99387.34
2023-05-15T17:30:52.398Z,99390.96
2023-05-15T17:33:21.849Z,99395.00
2023-05-15T17:35:52.546Z,99390.27
2023-05-15T17:38:22.009Z,99387.90
2023-05-15T17:40:51.746Z,99383.33
2023-05-15T17:43:24.337Z,99384.00
2023-05-15T17:45:57.943Z,99380.55
2023-05-15T17:48:30.905Z,99380.80
2023-05-15T17:51:05.545Z,99384.38
2023-05-15T17:53:34.868Z,99386.61
2023-05-15T17:56:04.683Z,99388.03
2023-05-15T17:58:38.334Z,99392.95
2023-05-15T18:01:08.133Z,99397.49
2023-05-15T18:03:43.769Z,99396.56
2023-05-15T18:07:28.987Z,99402.28
2023-05-15T18:09:59.774Z,99402.65
2023-05-15T18:12:29.432Z,99405.16
2023-05-15T18:14:59.170Z,99401.02
2023-05-15T18:17:29.601Z,99405.35
2023-05-15T18:20:02.050Z,99408.88
2023-05-15T18:22:32.222Z,99411.40
2023-05-15T18:25:02.921Z,99412.91
2023-05-15T18:27:34.300Z,99418.89
2023-05-15T18:30:05.048Z,99420.67
2023-05-15T18:32:36.593Z,99430.02
2023-05-15T18:35:07.085Z,99437.20
2023-05-15T18:37:54.075Z,99442.58
2023-05-15T18:40:27.068Z,99448.66
2023-05-15T18:43:02.490Z,99450.17
2023-05-15T18:45:34.067Z,99451.98
2023-05-15T18:48:07.426Z,99456.06
2023-05-15T18:50:41.521Z,99459.13
2023-05-15T18:53:11.922Z,99461.29
2023-05-15T18:55:51.642Z,99465.48
2023-05-15T18:58:33.254Z,99471.36
2023-05-15T19:01:04.174Z,99472.80
2023-05-15T19:03:37.511Z,99475.35
2023-05-15T19:06:10.868Z,99479.21
2023-05-15T19:09:01.341Z,99481.64
2023-05-15T19:12:05.993Z,99485.48
2023-05-15T19:14:49.624Z,99488.66
2023-05-15T19:17:20.634Z,99493.17
2023-05-15T19:19:52.595Z,99501.48
2023-05-15T19:22:23.855Z,99499.96
2023-05-15T19:24:54.040Z,99499.23
2023-05-15T19:27:24.083Z,99504.72
2023-05-15T19:29:54.485Z,99502.27
2023-05-15T19:32:33.040Z,99505.76
2023-05-15T19:35:04.874Z,99505.77
2023-05-15T19:37:35.400Z,99511.09
2023-05-15T19:40:12.756Z,99512.98
2023-05-15T19:42:42.937Z,99516.87
2023-05-15T19:45:18.513Z,99510.31
2023-05-15T19:47:53.684Z,99509.69
2023-05-15T19:50:24.290Z,99509.75
2023-05-15T19:52:56.943Z,99507.74
2023-05-15T19:55:37.378Z,99510.20
2023-05-15T19:58:11.220Z,99514.61
2023-05-15T20:00:41.927Z,99516.95
2023-05-15T20:03:18.507Z,99516.42
2023-05-15T20:05:51.531Z,99514.03
2023-05-15T20:08:22.726Z,99518.33
2023-05-15T20:10:54.851Z,99520.63
2023-05-15T20:13:25.277Z,99520.11
2023-05-15T20:15:59.071Z,99523.37
2023-05-15T20:18:35.081Z,99530.95
2023-05-15T20:21:07.994Z,99531.23
2023-05-15T20:23:40.097Z,99528.63
2023-05-15T20:26:13.175Z,99525.23
2023-05-15T20:28:46.556Z,99527.95
2023-05-15T20:31:27.325Z,99528.88
2023-05-15T20:34:00.415Z,99529.92
2023-05-15T20:36:32.760Z,99531.05
2023-05-15T20:39:07.547Z,99535.24
2023-05-15T20:41:37.767Z,99534.91
2023-05-15T20:44:07.551Z,99537.00
2023-05-15T20:46:40.206Z,99535.77
2023-05-15T20:49:10.286Z,99537.23
2023-05-15T20:51:48.977Z,99537.85
2023-05-15T20:54:22.872Z,99543.77
2023-05-15T20:56:56.281Z,99548.64
2023-05-15T20:59:29.073Z,99554.02
2023-05-15T21:02:05.418Z,99553.44
2023-05-15T21:04:37.918Z,99559.69
2023-05-15T21:07:13.112Z,99559.98
2023-05-15T21:09:51.953Z,99558.15
2023-05-15T21:12:35.209Z,99553.05
2023-05-15T21:15:20.716Z,99551.81
2023-05-15T21:17:50.613Z,99555.66
2023-05-15T21:24:08.555Z,99570.45
2023-05-15T21:27:29.019Z,99566.35
2023-05-15T21:30:00.986Z,99566.27
2023-05-15T21:32:37.971Z,99568.05
2023-05-15T21:35:21.541Z,99563.71
2023-05-15T21:37:58.587Z,99563.05
2023-05-15T21:40:36.948Z,99559.69
2023-05-15T21:43:11.497Z,99570.21
2023-05-15T21:45:44.186Z,99570.03
2023-05-15T21:48:16.735Z,99569.97
2023-05-15T21:50:54.501Z,99570.42
2023-05-15T21:53:28.968Z,99572.37
2023-05-15T21:56:07.192Z,99571.54
2023-05-15T21:58:41.514Z,99573.98
2023-05-15T22:01:11.635Z,99572.66
2023-05-15T22:03:41.551Z,99577.23
2023-05-15T22:06:12.320Z,99578.72
2023-05-15T22:08:42.195Z,99577.88
2023-05-15T22:11:34.750Z,99577.50
2023-05-15T22:14:11.909Z,99578.77
2023-05-15T22:17:07.486Z,99581.06
2023-05-15T22:19:38.058Z,99583.61
2023-05-15T22:22:10.139Z,99581.27
2023-05-15T22:24:40.293Z,99580.26
2023-05-15T22:27:10.214Z,99585.83
2023-05-15T22:29:39.978Z,99583.33
2023-05-15T22:32:09.696Z,99586.80
2023-05-15T22:34:45.794Z,99583.73
2023-05-15T22:37:16.563Z,99592.12
2023-05-15T22:39:48.204Z,99606.42
2023-05-15T22:42:19.584Z,99607.02
2023-05-15T22:44:55.280Z,99606.59
2023-05-15T22:47:31.494Z,99613.49
2023-05-15T22:50:01.691Z,99610.13
2023-05-15T22:52:31.450Z,99612.37
2023-05-15T22:55:00.862Z,99614.70
2023-05-15T22:57:30.481Z,99616.32
2023-05-15T23:00:01.240Z,99614.61
2023-05-15T23:02:31.417Z,99614.27
2023-05-15T23:05:05.804Z,99614.91
2023-05-15T23:07:35.821Z,99610.04
2023-05-15T23:10:06.040Z,99609.36
2023-05-15T23:12:38.430Z,99611.46
2023-05-15T23:15:14.020Z,99615.59
2023-05-15T23:17:51.626Z,99614.95
2023-05-15T23:20:22.919Z,99610.77
2023-05-15T23:22:58.562Z,99611.72
2023-05-15T23:25:28.577Z,99612.83
2023-05-15T23:28:03.629Z,99608.38
2023-05-15T23:30:35.580Z,99605.99
2023-05-15T23:33:05.700Z,99610.97
2023-05-15T23:35:35.582Z,99609.53
2023-05-15T23:38:05.816Z,99611.56
2023-05-15T23:40:36.312Z,99610.80
2023-05-15T23:43:09.725Z,99618.88
2023-05-15T23:45:39.541Z,99624.20
2023-05-15T23:48:10.229Z,99625.30
2023-05-15T23:50:40.494Z,99623.80
2023-05-15T23:53:12.896Z,99622.47
2023-05-15T23:55:42.557Z,99625.93
2023-05-15T23:58:13.835Z,99625.95
